Time;durP1;ratioP1;P1;durP2;ratioP2;P2;SDS_P1;SDS_P2;PMS_P1;PMS_P2;Temp;Humidity;BMP_temperature;BMP_pressure;BME280_temperature;BME280_humidity;BME280_pressure;Samples;Min_cycle;Max_cycle;Signal;HPM_P1;HPM_P2
2021/04/15 00:01:29;;;;;;;5.50;4.80;;;;;;;5.85;65.37;95061.78;5053521;28;20452;-79
2021/04/15 00:03:56;;;;;;;4.57;4.17;;;;;;;5.79;66.04;95059.56;5053767;28;20918;-78
2021/04/15 00:06:24;;;;;;;4.90;4.27;;;;;;;5.81;66.53;95060.31;5053580;28;20946;-78
2021/04/15 00:08:52;;;;;;;4.87;4.47;;;;;;;5.80;65.21;95055.19;5053367;28;20517;-79
2021/04/15 00:11:21;;;;;;;4.33;3.93;;;;;;;5.77;64.82;95061.41;5034264;28;20441;-78
2021/04/15 00:13:50;;;;;;;4.00;3.60;;;;;;;5.79;65.29;95061.34;5053545;28;20437;-79
2021/04/15 00:16:17;;;;;;;4.77;4.30;;;;;;;5.79;64.97;95053.53;5018297;28;21028;-78
2021/04/15 00:18:44;;;;;;;4.17;3.77;;;;;;;5.87;65.25;95067.72;5053542;28;20448;-79
2021/04/15 00:21:11;;;;;;;4.83;4.40;;;;;;;5.89;65.40;95065.03;5053619;28;20450;-79
2021/04/15 00:23:38;;;;;;;5.13;4.63;;;;;;;5.89;65.07;95055.47;5053553;28;20449;-79
2021/04/15 00:26:05;;;;;;;5.50;5.00;;;;;;;5.94;65.31;95068.19;5053619;28;20433;-78
2021/04/15 00:28:32;;;;;;;6.80;4.27;;;;;;;5.97;65.28;95062.78;5067953;28;20442;-79
2021/04/15 00:30:59;;;;;;;5.70;3.93;;;;;;;6.06;64.76;95059.59;5053111;28;20536;-78
2021/04/15 00:33:26;;;;;;;5.77;5.00;;;;;;;6.16;65.01;95052.03;5052933;28;21010;-79
2021/04/15 00:35:53;;;;;;;5.73;3.83;;;;;;;6.28;64.70;95060.81;5053055;28;20840;-79
2021/04/15 00:38:21;;;;;;;3.97;3.53;;;;;;;6.33;64.25;95058.72;5053677;28;20445;-78
2021/04/15 00:40:49;;;;;;;4.70;4.30;;;;;;;6.18;64.11;95044.94;5053103;28;20445;-79
2021/04/15 00:43:16;;;;;;;4.43;3.70;;;;;;;6.02;64.83;95047.69;5053213;28;20449;-79
2021/04/15 00:45:46;;;;;;;4.57;4.27;;;;;;;5.93;65.01;95050.06;5052836;28;20452;-79
2021/04/15 00:48:29;;;;;;;5.77;4.90;;;;;;;5.85;65.82;95038.34;5053318;28;20451;-79
2021/04/15 00:51:00;;;;;;;4.10;3.70;;;;;;;5.83;66.09;95040.22;5053268;28;20449;-78
2021/04/15 00:53:29;;;;;;;7.50;4.80;;;;;;;5.72;66.74;95029.63;5052919;28;20446;-78
2021/04/15 00:55:56;;;;;;;4.10;3.73;;;;;;;5.76;66.22;95035.47;5052848;28;20493;-78
2021/04/15 00:58:22;;;;;;;4.60;4.20;;;;;;;5.86;66.73;95040.03;5052996;28;20855;-78
2021/04/15 01:00:50;;;;;;;7.43;4.30;;;;;;;5.77;65.80;95044.94;5053036;28;20441;-78
2021/04/15 01:03:16;;;;;;;4.73;4.20;;;;;;;5.76;66.31;95038.06;5052681;28;20445;-78
2021/04/15 01:05:45;;;;;;;6.50;4.77;;;;;;;5.69;65.78;95031.59;5052946;28;20456;-78
2021/04/15 01:08:12;;;;;;;3.90;3.50;;;;;;;5.62;66.57;95033.75;5052953;28;20452;-78
2021/04/15 01:10:41;;;;;;;3.63;3.33;;;;;;;5.66;66.08;95031.78;5053055;28;20449;-79
2021/04/15 01:13:30;;;;;;;6.53;4.10;;;;;;;5.56;66.07;95026.34;5052635;28;20968;-79
2021/04/15 01:16:11;;;;;;;5.43;3.70;;;;;;;5.48;65.39;95026.81;5052770;28;21326;-78
2021/04/15 01:18:46;;;;;;;4.20;3.90;;;;;;;5.40;66.34;95026.47;5052690;28;20449;-78
2021/04/15 01:21:48;;;;;;;3.90;3.53;;;;;;;5.43;66.74;95025.44;5052683;28;20498;-78
2021/04/15 01:24:21;;;;;;;4.23;3.90;;;;;;;5.41;66.40;95027.28;5055991;28;20852;-78
2021/04/15 01:27:17;;;;;;;3.83;3.50;;;;;;;5.44;66.74;95022.72;5056801;28;20437;-78
2021/04/15 01:29:52;;;;;;;4.20;3.80;;;;;;;5.39;66.96;95019.59;5056664;28;20452;-79
2021/04/15 01:32:23;;;;;;;4.70;4.30;;;;;;;5.43;66.67;95028.88;5056600;28;20437;-78
2021/04/15 01:34:55;;;;;;;3.50;3.20;;;;;;;5.41;66.70;95019.47;5056216;28;20445;-78
2021/04/15 01:37:29;;;;;;;4.43;3.70;;;;;;;5.39;67.46;95032.59;5056701;28;21437;-79
2021/04/15 01:40:03;;;;;;;3.83;3.53;;;;;;;5.29;67.57;95027.13;5056357;28;20456;-79
2021/04/15 01:42:37;;;;;;;5.57;4.90;;;;;;;5.42;66.61;95015.94;5056261;28;20464;-78
2021/04/15 01:45:09;;;;;;;6.20;3.93;;;;;;;5.41;66.91;95035.09;5056666;28;20476;-78
2021/04/15 01:47:39;;;;;;;4.07;3.67;;;;;;;5.44;67.16;95035.75;5037773;28;20460;-79
2021/04/15 01:50:14;;;;;;;3.83;3.53;;;;;;;5.41;66.56;95032.50;5056090;28;20456;-78
2021/04/15 01:52:42;;;;;;;4.47;4.07;;;;;;;5.49;66.87;95040.66;5056093;28;20444;-78
2021/04/15 01:55:17;;;;;;;4.57;3.67;;;;;;;5.47;66.35;95034.72;5056158;28;20452;-79
2021/04/15 01:57:50;;;;;;;3.77;3.47;;;;;;;5.50;66.46;95030.19;5055954;28;20472;-79
2021/04/15 02:00:22;;;;;;;4.50;4.10;;;;;;;5.57;66.47;95033.22;5056241;28;20472;-78
2021/04/15 02:02:53;;;;;;;6.03;3.70;;;;;;;5.55;66.31;95029.88;5056066;28;20437;-78
2021/04/15 02:05:24;;;;;;;3.70;3.37;;;;;;;5.59;66.38;95041.75;5056289;28;20441;-79
2021/04/15 02:07:54;;;;;;;5.10;4.30;;;;;;;5.60;65.68;95036.47;5055957;28;20445;-78
2021/04/15 02:10:21;;;;;;;4.60;3.30;;;;;;;5.63;65.60;95034.59;5055908;28;20442;-78
2021/04/15 02:12:52;;;;;;;4.30;3.90;;;;;;;5.59;65.18;95031.34;5055955;28;20437;-79
2021/04/15 02:15:26;;;;;;;5.20;4.17;;;;;;;5.60;65.01;95038.22;5055673;28;20453;-78
2021/04/15 02:17:57;;;;;;;3.80;3.50;;;;;;;5.69;65.39;95049.81;5055310;28;20871;-79
2021/04/15 02:20:26;;;;;;;3.90;3.50;;;;;;;5.70;64.31;95038.47;5055577;28;21052;-79
2021/04/15 02:23:00;;;;;;;3.07;2.83;;;;;;;5.65;64.33;95045.75;5055479;28;20445;-79
2021/04/15 02:25:32;;;;;;;3.40;3.10;;;;;;;5.71;65.26;95046.19;5055574;28;20444;-79
2021/04/15 02:28:07;;;;;;;3.53;3.23;;;;;;;5.77;64.92;95052.78;5055265;28;20920;-78
2021/04/15 02:30:41;;;;;;;3.07;2.73;;;;;;;5.80;64.26;95057.81;5055442;28;20453;-78
2021/04/15 02:33:16;;;;;;;4.23;3.83;;;;;;;5.78;64.07;95041.41;5054828;28;20448;-79
2021/04/15 02:35:45;;;;;;;4.33;3.73;;;;;;;5.84;64.40;95046.25;5055095;28;20490;-78
2021/04/15 02:38:13;;;;;;;5.50;5.00;;;;;;;5.86;64.24;95060.00;5055772;28;20453;-78
2021/04/15 02:40:42;;;;;;;5.23;4.83;;;;;;;5.87;64.40;95051.28;5055401;28;20491;-79
2021/04/15 02:43:15;;;;;;;5.50;5.00;;;;;;;5.94;64.66;95054.34;5055563;28;20449;-79
2021/04/15 02:45:48;;;;;;;5.40;4.60;;;;;;;5.97;64.93;95054.97;5055223;28;20457;-78
2021/04/15 02:48:19;;;;;;;6.87;5.50;;;;;;;5.93;63.86;95057.88;5055733;28;20539;-79
2021/04/15 02:50:46;;;;;;;6.03;4.60;;;;;;;5.96;64.83;95055.91;5053147;28;20442;-78
2021/04/15 02:53:16;;;;;;;5.53;5.03;;;;;;;6.02;64.39;95060.72;5054746;28;20456;-79
2021/04/15 02:55:50;;;;;;;3.03;2.83;;;;;;;5.93;64.23;95060.47;5054925;28;20981;-78
2021/04/15 02:58:23;;;;;;;4.67;4.27;;;;;;;5.94;64.89;95057.78;5055098;28;20460;-78
2021/04/15 03:00:52;;;;;;;3.83;3.53;;;;;;;6.02;64.58;95060.72;5054993;28;20447;-78
2021/04/15 03:03:21;;;;;;;10.00;4.43;;;;;;;5.94;64.69;95060.38;5054894;28;20449;-79
2021/04/15 03:05:51;;;;;;;4.43;3.80;;;;;;;5.96;64.98;95060.28;5055136;28;20457;-78
2021/04/15 03:08:21;;;;;;;5.10;4.43;;;;;;;6.01;64.71;95063.44;5054861;28;20469;-80
2021/04/15 03:10:54;;;;;;;5.17;4.67;;;;;;;6.03;64.45;95059.78;5055162;28;20442;-79
2021/04/15 03:13:24;;;;;;;3.97;3.63;;;;;;;6.10;64.69;95066.28;5054783;28;20452;-79
2021/04/15 03:15:55;;;;;;;5.80;5.20;;;;;;;6.18;64.21;95061.41;5054454;28;20480;-78
2021/04/15 03:18:25;;;;;;;4.73;4.33;;;;;;;6.18;64.29;95061.41;5035091;28;20438;-78
2021/04/15 03:21:00;;;;;;;6.20;4.67;;;;;;;6.18;63.95;95055.38;5054010;28;20539;-78
2021/04/15 03:23:36;;;;;;;21.10;10.73;;;;;;;6.08;63.69;95049.09;5053412;28;20457;-79
2021/04/15 03:26:15;;;;;;;8.90;7.40;;;;;;;6.16;63.97;95052.88;5053699;28;20444;-78
2021/04/15 03:28:53;;;;;;;15.63;6.67;;;;;;;6.18;64.68;95061.41;5053780;28;20444;-78
2021/04/15 03:31:27;;;;;;;11.13;7.87;;;;;;;6.09;64.73;95062.03;5053455;28;20455;-79
2021/04/15 03:33:59;;;;;;;6.20;5.50;;;;;;;5.92;64.65;95061.41;5053724;28;20452;-78
2021/04/15 03:36:32;;;;;;;16.40;11.00;;;;;;;5.84;65.03;95056.69;5053713;28;20485;-79
2021/04/15 03:39:06;;;;;;;8.00;5.90;;;;;;;5.86;64.68;95065.22;5054047;28;20450;-79
2021/04/15 03:41:39;;;;;;;9.77;8.57;;;;;;;5.78;65.43;95054.44;5053990;28;20445;-78
2021/04/15 03:44:09;;;;;;;10.20;8.63;;;;;;;5.74;64.86;95058.16;5053920;28;20839;-78
2021/04/15 03:46:41;;;;;;;10.23;9.17;;;;;;;5.75;66.26;95058.06;5053053;28;20494;-78
2021/04/15 03:49:12;;;;;;;7.43;5.97;;;;;;;5.79;65.67;95056.13;5035370;28;20913;-78
2021/04/15 03:51:43;;;;;;;10.97;6.87;;;;;;;5.78;66.67;95059.63;5053789;28;20457;-78
2021/04/15 03:54:12;;;;;;;7.60;6.50;;;;;;;5.87;67.22;95061.69;5054051;28;20454;-78
2021/04/15 03:56:42;;;;;;;6.23;5.30;;;;;;;5.87;67.18;95052.09;5054032;28;20511;-78
2021/04/15 03:59:13;;;;;;;5.30;4.67;;;;;;;5.95;66.86;95059.44;5053996;28;20437;-78
2021/04/15 04:01:44;;;;;;;18.13;6.33;;;;;;;5.89;67.78;95060.69;5053630;28;20448;-78
2021/04/15 04:04:23;;;;;;;9.10;6.83;;;;;;;5.94;67.96;95049.13;5053392;28;20495;-78
2021/04/15 04:06:51;;;;;;;9.47;7.73;;;;;;;5.86;68.20;95054.81;5054169;28;20767;-78
2021/04/15 04:09:22;;;;;;;14.90;8.80;;;;;;;5.80;69.59;95060.41;5053780;28;20449;-78
2021/04/15 04:11:51;;;;;;;17.33;9.50;;;;;;;5.82;69.53;95059.38;5053320;28;20453;-78
2021/04/15 04:14:20;;;;;;;16.63;9.50;;;;;;;5.85;69.56;95061.78;5053436;28;20452;-78
2021/04/15 04:16:55;;;;;;;12.53;8.53;;;;;;;5.95;70.39;95069.03;5053461;28;20485;-78
2021/04/15 04:19:26;;;;;;;17.37;7.10;;;;;;;5.96;69.74;95073.31;5053396;28;20456;-78
2021/04/15 04:21:59;;;;;;;16.27;9.80;;;;;;;5.94;70.23;95063.00;5053210;28;20936;-78
2021/04/15 04:24:35;;;;;;;15.87;9.03;;;;;;;5.91;69.76;95068.41;5053552;28;20445;-78
2021/04/15 04:27:07;;;;;;;9.67;8.07;;;;;;;5.92;69.88;95074.44;5068256;28;20449;-77
2021/04/15 04:29:40;;;;;;;12.57;8.60;;;;;;;5.94;70.36;95065.59;5053616;28;20506;-78
2021/04/15 04:32:11;;;;;;;9.20;7.27;;;;;;;6.08;70.62;95075.97;5053623;28;20441;-78
2021/04/15 04:34:39;;;;;;;14.13;11.40;;;;;;;6.14;70.00;95070.38;5053010;28;20813;-78
2021/04/15 04:37:09;;;;;;;11.90;8.07;;;;;;;6.24;69.93;95081.03;5053404;28;20534;-78
2021/04/15 04:39:37;;;;;;;17.20;10.47;;;;;;;6.30;69.14;95080.63;5053155;28;20445;-79
2021/04/15 04:42:12;;;;;;;14.93;10.80;;;;;;;6.39;69.57;95076.59;5053076;28;20448;-78
2021/04/15 04:44:41;;;;;;;10.83;8.23;;;;;;;6.49;69.31;95077.66;5053264;28;20476;-78
2021/04/15 04:47:16;;;;;;;11.37;7.97;;;;;;;6.43;69.35;95075.47;5053060;28;20449;-78
2021/04/15 04:49:46;;;;;;;13.30;8.70;;;;;;;6.37;69.55;95081.91;5052731;28;20448;-78
2021/04/15 04:52:21;;;;;;;7.80;6.40;;;;;;;6.31;69.45;95078.84;5053055;28;20453;-79
2021/04/15 04:54:48;;;;;;;11.57;8.83;;;;;;;6.20;69.16;95075.19;5034396;28;20495;-78
2021/04/15 04:57:19;;;;;;;10.57;8.67;;;;;;;6.22;69.83;95078.53;5054953;28;20477;-78
2021/04/15 04:59:51;;;;;;;12.40;9.03;;;;;;;6.28;70.21;95076.44;5056922;28;20460;-78
2021/04/15 05:02:18;;;;;;;11.10;7.67;;;;;;;6.24;70.12;95083.63;5057197;28;20441;-78
2021/04/15 05:04:45;;;;;;;10.80;8.83;;;;;;;6.24;70.64;95082.78;5057417;28;20454;-78
2021/04/15 05:07:20;;;;;;;11.23;8.53;;;;;;;6.31;70.54;95086.66;5057525;28;20795;-78
2021/04/15 05:09:48;;;;;;;25.83;14.20;;;;;;;6.28;70.56;95087.69;5057010;28;20932;-78
2021/04/15 05:12:19;;;;;;;24.97;14.30;;;;;;;6.26;69.48;95088.75;5057083;28;20436;-78
2021/04/15 05:14:46;;;;;;;31.10;14.17;;;;;;;6.25;69.62;95090.50;5057065;28;20780;-78
2021/04/15 05:17:24;;;;;;;24.00;14.30;;;;;;;6.17;69.51;95101.44;5056804;28;20516;-78
2021/04/15 05:19:51;;;;;;;22.63;13.87;;;;;;;6.20;69.78;95101.22;5056459;28;20467;-78
2021/04/15 05:22:26;;;;;;;36.93;16.53;;;;;;;6.25;69.46;95097.50;5056745;28;20449;-78
2021/04/15 05:24:58;;;;;;;20.87;13.13;;;;;;;6.26;69.58;95101.75;5057335;28;20437;-78
2021/04/15 05:27:26;;;;;;;29.00;15.27;;;;;;;6.22;69.64;95098.53;5056900;28;20452;-78
2021/04/15 05:30:13;;;;;;;20.67;13.73;;;;;;;6.21;69.97;95096.84;5056418;28;20445;-79
2021/04/15 05:32:42;;;;;;;14.30;9.80;;;;;;;6.00;69.57;95101.66;5056821;28;20502;-78
2021/04/15 05:35:12;;;;;;;11.67;8.87;;;;;;;5.81;70.91;95098.53;5021393;28;20925;-78
2021/04/15 05:37:38;;;;;;;13.87;10.53;;;;;;;5.82;71.06;95095.00;5054165;28;20981;-78
2021/04/15 05:40:06;;;;;;;14.17;11.17;;;;;;;5.86;72.02;95099.06;5056533;28;20437;-78
2021/04/15 05:42:37;;;;;;;24.63;14.73;;;;;;;5.89;72.09;95091.06;5053760;28;20471;-78
2021/04/15 05:45:12;;;;;;;13.30;9.10;;;;;;;5.85;71.26;95087.81;5055999;28;20480;-78
2021/04/15 05:47:53;;;;;;;14.33;10.33;;;;;;;5.94;71.17;95088.19;5056138;28;20443;-78
2021/04/15 05:50:23;;;;;;;13.10;9.50;;;;;;;5.97;71.05;95099.25;5056547;28;20513;-78
2021/04/15 05:52:56;;;;;;;15.57;9.57;;;;;;;6.02;71.91;95098.97;5056024;28;20908;-78
2021/04/15 05:55:38;;;;;;;17.37;11.10;;;;;;;5.99;71.20;95096.56;5056349;28;20760;-78
2021/04/15 05:58:11;;;;;;;25.07;16.03;;;;;;;6.02;71.07;95102.41;5056437;28;20476;-78
2021/04/15 06:00:42;;;;;;;27.00;16.97;;;;;;;6.13;71.29;95107.78;5056214;28;20901;-77
2021/04/15 06:03:28;;;;;;;16.50;11.30;;;;;;;6.26;71.10;95104.38;5055806;28;20445;-77
2021/04/15 06:06:01;;;;;;;15.50;10.57;;;;;;;6.23;71.37;95100.19;5033818;28;20480;-77
2021/04/15 06:08:30;;;;;;;21.40;12.60;;;;;;;6.25;70.59;95102.69;5033282;28;20457;-76
2021/04/15 06:11:05;;;;;;;16.93;12.10;;;;;;;6.10;70.64;95107.16;5033685;28;20434;-77
2021/04/15 06:13:41;;;;;;;17.23;12.60;;;;;;;6.12;70.03;95106.09;5017664;28;20453;-78
2021/04/15 06:16:12;;;;;;;12.20;8.00;;;;;;;6.14;70.84;95106.00;5033449;28;20481;-78
2021/04/15 06:18:45;;;;;;;8.10;7.30;;;;;;;6.18;70.65;95100.50;5033441;28;20886;-77
2021/04/15 06:21:18;;;;;;;11.97;9.60;;;;;;;6.20;71.21;95106.44;5033697;28;20439;-77
2021/04/15 06:23:48;;;;;;;12.60;9.47;;;;;;;6.22;70.59;95104.56;5033302;28;20519;-78
2021/04/15 06:26:28;;;;;;;9.43;7.63;;;;;;;6.27;70.75;95101.66;5034098;28;20450;-78
2021/04/15 06:28:57;;;;;;;11.07;8.30;;;;;;;6.26;69.91;95089.56;5033698;28;20454;-77
2021/04/15 06:31:26;;;;;;;22.33;13.63;;;;;;;6.21;71.00;95097.69;5033001;28;20817;-78
2021/04/15 06:33:54;;;;;;;35.40;16.83;;;;;;;6.21;71.13;95102.91;5032577;28;20454;-77
2021/04/15 06:36:38;;;;;;;25.93;14.60;;;;;;;6.28;71.07;95103.34;5032823;28;20535;-78
2021/04/15 06:39:13;;;;;;;23.17;12.03;;;;;;;6.31;71.21;95100.53;5033134;28;20836;-78
2021/04/15 06:42:21;;;;;;;17.60;10.10;;;;;;;6.28;70.39;95098.13;5016663;28;20449;-78
2021/04/15 06:45:22;;;;;;;13.47;8.63;;;;;;;6.31;69.77;95090.09;5054776;28;20512;-78
2021/04/15 06:48:26;;;;;;;16.47;9.60;;;;;;;6.32;69.28;95090.94;5055371;28;20449;-78
2021/04/15 06:51:19;;;;;;;9.57;8.50;;;;;;;6.40;69.61;95086.94;5055141;28;20460;-79
2021/04/15 06:53:58;;;;;;;9.80;8.00;;;;;;;6.54;70.20;95093.81;5055458;28;20472;-78
2021/04/15 06:56:35;;;;;;;11.90;8.33;;;;;;;6.59;69.29;95091.75;5069015;28;20481;-79
2021/04/15 06:59:11;;;;;;;10.50;8.07;;;;;;;6.63;68.06;95102.81;5055290;28;20437;-78
2021/04/15 07:01:54;;;;;;;16.27;8.43;;;;;;;6.66;66.86;95111.28;5055091;28;20456;-78
2021/04/15 07:04:25;;;;;;;9.47;6.87;;;;;;;6.61;66.65;95112.50;5055060;28;20433;-78
2021/04/15 07:07:02;;;;;;;16.27;10.17;;;;;;;6.65;66.60;95106.16;5055194;28;20984;-77
2021/04/15 07:09:44;;;;;;;10.47;9.37;;;;;;;6.60;66.70;95111.66;5058326;28;20461;-77
2021/04/15 07:12:44;;;;;;;14.33;8.40;;;;;;;6.64;67.10;95109.69;5055013;28;20441;-77
2021/04/15 07:15:37;;;;;;;43.70;21.47;;;;;;;6.64;67.33;95115.72;5032814;28;20450;-78
2021/04/15 07:18:21;;;;;;;15.30;8.70;;;;;;;6.66;66.88;95119.09;5033205;28;20600;-77
2021/04/15 07:21:04;;;;;;;14.13;9.50;;;;;;;6.77;66.82;95119.22;5031898;28;20442;-77
2021/04/15 07:24:09;;;;;;;16.47;11.83;;;;;;;6.84;67.27;95120.47;5033211;28;20461;-78
2021/04/15 07:27:06;;;;;;;13.63;9.77;;;;;;;6.86;66.82;95119.53;5032800;28;20450;-77
2021/04/15 07:29:40;;;;;;;12.67;9.10;;;;;;;6.76;65.75;95114.94;4984162;28;20492;-77
2021/04/15 07:32:26;;;;;;;12.67;9.20;;;;;;;6.64;66.04;95115.72;5001562;28;20442;-77
2021/04/15 07:35:11;;;;;;;13.10;9.33;;;;;;;6.63;66.66;95114.06;5032639;28;20446;-79
2021/04/15 07:37:54;;;;;;;13.50;10.37;;;;;;;6.56;67.77;95120.63;5032274;28;21004;-78
2021/04/15 07:40:36;;;;;;;18.83;9.43;;;;;;;6.60;67.49;95123.88;5032741;28;20449;-78
2021/04/15 07:43:24;;;;;;;13.00;9.03;;;;;;;6.59;67.42;95127.41;5032204;28;20519;-78
2021/04/15 07:46:07;;;;;;;11.40;10.20;;;;;;;6.50;67.09;95119.25;5032260;28;20450;-78
2021/04/15 07:49:02;;;;;;;13.63;10.40;;;;;;;6.51;67.35;95125.31;5032170;28;20979;-78
2021/04/15 07:51:49;;;;;;;11.07;8.40;;;;;;;6.57;67.64;95122.28;5037374;28;21021;-78
2021/04/15 07:54:49;;;;;;;22.93;13.20;;;;;;;6.76;68.49;95125.38;5053938;28;20796;-78
2021/04/15 07:57:54;;;;;;;16.27;11.33;;;;;;;6.80;67.39;95126.00;5031572;28;20485;-78
2021/04/15 08:00:31;;;;;;;14.63;11.43;;;;;;;6.68;67.09;95135.47;5032219;28;20450;-77
2021/04/15 08:03:21;;;;;;;23.07;10.30;;;;;;;6.65;66.33;95129.59;5031911;28;20445;-78
2021/04/15 08:06:02;;;;;;;19.43;11.63;;;;;;;6.62;66.01;95124.59;5032095;28;20944;-77
2021/04/15 08:08:54;;;;;;;14.13;11.07;;;;;;;6.61;66.83;95130.75;5032387;28;20461;-78
2021/04/15 08:11:38;;;;;;;16.17;11.40;;;;;;;6.66;66.74;95132.16;5032151;28;20439;-77
2021/04/15 08:14:44;;;;;;;13.60;10.17;;;;;;;6.70;65.98;95124.94;5031676;28;20537;-77
2021/04/15 08:17:46;;;;;;;9.63;8.63;;;;;;;6.76;66.04;95127.97;5031068;28;20486;-77
2021/04/15 08:20:47;;;;;;;12.50;9.37;;;;;;;6.75;65.38;95141.13;4972479;28;20521;-77
2021/04/15 08:23:47;;;;;;;19.90;7.87;;;;;;;6.69;65.45;95133.72;4972513;28;20871;-77
2021/04/15 08:26:34;;;;;;;14.60;10.00;;;;;;;6.59;65.81;95133.47;4972585;28;20937;-77
2021/04/15 08:29:15;;;;;;;19.83;11.47;;;;;;;6.48;65.85;95131.56;4972345;28;20452;-77
2021/04/15 08:31:54;;;;;;;14.60;10.33;;;;;;;6.51;66.79;95127.91;4972130;28;20480;-79
2021/04/15 08:34:27;;;;;;;22.03;13.03;;;;;;;6.43;66.26;95122.38;4983852;28;20502;-77
2021/04/15 08:37:22;;;;;;;20.47;12.53;;;;;;;6.42;66.51;95121.53;4991458;28;20500;-78
2021/04/15 08:40:03;;;;;;;18.07;13.07;;;;;;;6.50;66.29;95134.06;4991724;28;20448;-78
2021/04/15 08:42:51;;;;;;;20.33;11.20;;;;;;;6.46;65.36;95124.78;4991468;28;20543;-77
2021/04/15 08:45:31;;;;;;;21.07;12.13;;;;;;;6.45;66.32;95126.56;4991275;28;20474;-77
2021/04/15 08:48:11;;;;;;;21.00;12.73;;;;;;;6.51;65.88;95127.91;4991367;28;21052;-77
2021/04/15 08:50:49;;;;;;;25.73;15.40;;;;;;;6.63;66.45;95129.72;4991613;28;20479;-77
2021/04/15 08:53:29;;;;;;;24.53;14.43;;;;;;;6.67;66.26;95126.00;4991561;28;20798;-78
2021/04/15 08:56:01;;;;;;;20.87;13.53;;;;;;;6.72;65.39;95139.56;4994681;28;20498;-78
2021/04/15 08:58:54;;;;;;;25.13;12.90;;;;;;;6.74;66.19;95134.25;5052898;28;20488;-79
2021/04/15 09:01:30;;;;;;;25.17;13.50;;;;;;;6.82;65.85;95137.16;5052880;28;20453;-79
2021/04/15 09:04:05;;;;;;;18.00;11.90;;;;;;;6.75;65.58;95128.91;5052741;28;20441;-79
2021/04/15 09:06:39;;;;;;;26.33;14.47;;;;;;;6.72;66.08;95121.31;5052998;28;20449;-78
2021/04/15 09:09:17;;;;;;;16.67;11.20;;;;;;;6.75;65.94;95134.13;5052730;28;20539;-78
2021/04/15 09:11:56;;;;;;;29.73;16.83;;;;;;;6.79;66.22;95119.13;5034280;28;20443;-78
2021/04/15 09:14:34;;;;;;;27.90;14.90;;;;;;;6.87;66.83;95123.81;5052944;28;20445;-79
2021/04/15 09:17:04;;;;;;;17.93;11.03;;;;;;;6.95;65.13;95122.41;5034095;28;20964;-78
2021/04/15 09:19:45;;;;;;;11.70;8.90;;;;;;;6.85;65.64;95123.91;5052386;28;20461;-78
2021/04/15 09:22:30;;;;;;;14.93;10.30;;;;;;;6.94;65.46;95118.13;5051861;28;20449;-78
2021/04/15 09:25:03;;;;;;;14.63;11.17;;;;;;;6.91;65.61;95112.25;5052366;28;20515;-78
2021/04/15 09:27:44;;;;;;;36.60;17.93;;;;;;;7.01;65.76;95108.94;5052269;28;20449;-78
2021/04/15 09:30:35;;;;;;;29.53;14.43;;;;;;;6.99;66.64;95107.38;5052166;28;21226;-78
2021/04/15 09:33:08;;;;;;;39.53;15.93;;;;;;;7.10;66.12;95097.88;5052108;28;20507;-78
2021/04/15 09:35:56;;;;;;;14.27;10.07;;;;;;;7.18;65.49;95099.94;5051942;28;20429;-79
2021/04/15 09:39:13;;;;;;;43.60;16.93;;;;;;;7.35;66.08;95093.59;5052724;28;20460;-78
2021/04/15 09:42:03;;;;;;;39.57;19.40;;;;;;;7.40;64.22;95088.88;5010092;28;20555;-77
2021/04/15 09:44:58;;;;;;;15.33;9.97;;;;;;;7.35;63.93;95080.53;5011992;28;20479;-79
2021/04/15 09:47:36;;;;;;;14.47;10.87;;;;;;;7.43;63.06;95088.66;5014387;28;20462;-78
2021/04/15 09:50:18;;;;;;;34.27;17.90;;;;;;;7.49;64.65;95082.16;5014386;28;20956;-77
2021/04/15 09:53:17;;;;;;;35.10;17.33;;;;;;;7.65;63.32;95081.00;5014287;28;20442;-77
2021/04/15 09:55:59;;;;;;;23.10;13.10;;;;;;;7.86;62.75;95070.00;4955228;29;20476;-77
2021/04/15 09:58:36;;;;;;;16.37;10.80;;;;;;;7.79;62.53;95069.56;4954679;29;20464;-78
2021/04/15 10:01:09;;;;;;;13.90;10.00;;;;;;;7.85;62.61;95073.53;4954809;29;20935;-78
2021/04/15 10:03:46;;;;;;;13.70;10.60;;;;;;;7.87;61.31;95076.88;4955367;29;21047;-78
2021/04/15 10:06:21;;;;;;;17.83;11.03;;;;;;;7.99;61.73;95076.00;4955497;29;20481;-78
2021/04/15 10:09:19;;;;;;;13.43;8.50;;;;;;;7.97;60.52;95068.28;4955431;29;20558;-77
2021/04/15 10:12:02;;;;;;;14.10;9.67;;;;;;;8.16;60.73;95065.16;4861412;29;20472;-78
2021/04/15 10:14:48;;;;;;;14.63;10.83;;;;;;;8.17;60.09;95059.00;4860999;29;20843;-78
2021/04/15 10:17:30;;;;;;;14.37;9.80;;;;;;;8.43;60.34;95064.13;4898897;29;20499;-78
2021/04/15 10:20:25;;;;;;;12.97;9.30;;;;;;;8.38;59.09;95061.84;4899251;29;20928;-77
2021/04/15 10:23:07;;;;;;;11.60;6.30;;;;;;;8.40;57.99;95062.59;4899174;29;20452;-77
2021/04/15 10:25:41;;;;;;;14.30;9.43;;;;;;;8.27;59.33;95056.53;4898721;29;20454;-78
2021/04/15 10:28:40;;;;;;;13.30;7.83;;;;;;;8.36;59.82;95066.34;4898311;29;20456;-78
2021/04/15 10:31:41;;;;;;;10.87;8.07;;;;;;;8.25;60.25;95059.25;4917025;29;20475;-79
2021/04/15 10:34:43;;;;;;;10.33;8.47;;;;;;;8.03;60.67;95062.59;4974146;28;20457;-78
2021/04/15 10:37:31;;;;;;;20.87;9.77;;;;;;;8.11;61.30;95053.38;4974318;28;21000;-78
2021/04/15 10:40:42;;;;;;;14.90;9.87;;;;;;;8.15;61.19;95044.38;4974327;28;20456;-79
2021/04/15 10:43:44;;;;;;;14.27;9.23;;;;;;;8.20;61.62;95050.09;4974456;28;20437;-78
2021/04/15 10:46:27;;;;;;;11.30;8.60;;;;;;;8.21;60.63;95049.97;4897708;29;20458;-78
2021/04/15 10:49:03;;;;;;;11.10;8.33;;;;;;;8.22;60.23;95045.59;4933638;28;20850;-78
2021/04/15 10:51:35;;;;;;;9.40;8.10;;;;;;;8.23;60.36;95052.47;4973969;28;20452;-79
2021/04/15 10:54:18;;;;;;;13.67;10.23;;;;;;;8.24;59.90;95049.75;4974067;28;20483;-79
2021/04/15 10:56:49;;;;;;;10.03;9.03;;;;;;;8.28;58.14;95050.38;4973828;28;20488;-78
2021/04/15 10:59:33;;;;;;;13.03;8.60;;;;;;;8.27;59.04;95036.47;4974153;28;20441;-78
2021/04/15 11:02:33;;;;;;;10.30;7.60;;;;;;;8.17;57.37;95039.88;4974188;28;20456;-77
2021/04/15 11:05:26;;;;;;;8.83;7.67;;;;;;;8.18;57.51;95044.16;4974008;28;21013;-79
2021/04/15 11:07:55;;;;;;;13.47;8.13;;;;;;;8.28;58.21;95034.69;4954224;29;20450;-77
2021/04/15 11:10:27;;;;;;;10.60;7.00;;;;;;;8.45;58.20;95038.72;4955051;29;20798;-78
2021/04/15 11:13:20;;;;;;;12.57;7.70;;;;;;;8.58;56.56;95042.91;4954674;29;20470;-79
2021/04/15 11:15:49;;;;;;;10.40;8.80;;;;;;;8.60;54.88;95032.31;4954421;29;20534;-77
2021/04/15 11:18:25;;;;;;;10.27;8.20;;;;;;;8.43;54.95;95032.75;4954554;29;20520;-77
2021/04/15 11:20:55;;;;;;;6.67;6.07;;;;;;;8.32;53.95;95026.50;4906898;29;20545;-79
2021/04/15 11:23:32;;;;;;;10.87;8.50;;;;;;;8.43;55.94;95036.22;4996245;28;20509;-78
2021/04/15 11:26:18;;;;;;;14.53;8.43;;;;;;;8.57;54.71;95028.16;5032327;28;20454;-78
2021/04/15 11:28:45;;;;;;;12.60;8.70;;;;;;;8.71;54.70;95026.31;5032608;28;21064;-79
2021/04/15 11:31:35;;;;;;;18.17;8.50;;;;;;;8.85;54.83;95023.47;5032865;28;20987;-79
2021/04/15 11:34:12;;;;;;;12.23;8.30;;;;;;;8.92;55.22;95024.66;5032316;28;20456;-79
2021/04/15 11:36:44;;;;;;;11.43;8.30;;;;;;;9.05;55.22;95030.63;5032149;28;20488;-79
2021/04/15 11:39:19;;;;;;;10.93;7.90;;;;;;;9.05;54.69;95014.94;5032140;28;20443;-78
2021/04/15 11:41:59;;;;;;;9.43;7.70;;;;;;;9.04;55.28;95018.50;5032338;28;20537;-78
2021/04/15 11:44:31;;;;;;;6.10;5.60;;;;;;;8.98;53.31;95018.97;5039221;28;20473;-79
2021/04/15 11:47:01;;;;;;;10.70;7.70;;;;;;;8.97;54.02;95002.44;5054509;28;20537;-78
2021/04/15 11:49:31;;;;;;;8.77;6.90;;;;;;;8.99;54.51;95011.00;5054244;28;20450;-78
2021/04/15 11:52:03;;;;;;;12.47;7.47;;;;;;;9.03;54.68;94992.44;5054143;28;20496;-77
2021/04/15 11:54:32;;;;;;;9.67;6.40;;;;;;;9.13;51.48;95006.50;5054565;28;20434;-78
2021/04/15 11:57:14;;;;;;;7.30;6.47;;;;;;;9.18;52.41;94989.47;5054187;28;20471;-77
2021/04/15 11:59:40;;;;;;;5.50;5.00;;;;;;;9.32;50.17;95002.34;5054338;28;20462;-79
2021/04/15 12:02:16;;;;;;;9.07;5.73;;;;;;;9.34;49.94;95002.22;5051664;28;20444;-78
2021/04/15 12:04:43;;;;;;;9.17;6.07;;;;;;;9.28;50.78;94986.97;5053799;28;20984;-79
2021/04/15 12:07:21;;;;;;;7.63;6.83;;;;;;;9.41;51.93;94986.84;5052948;28;20446;-78
2021/04/15 12:09:48;;;;;;;11.03;8.50;;;;;;;9.39;52.76;95014.94;5053924;28;20439;-77
2021/04/15 12:12:24;;;;;;;10.57;6.67;;;;;;;9.24;53.23;95001.25;5054669;28;20450;-77
2021/04/15 12:14:51;;;;;;;12.07;9.07;;;;;;;9.18;54.07;94984.22;5054656;28;20443;-77
2021/04/15 12:17:28;;;;;;;12.10;7.50;;;;;;;9.10;51.79;95002.31;5054770;28;20494;-79
2021/04/15 12:20:04;;;;;;;10.70;7.93;;;;;;;9.06;52.36;95006.13;5054231;28;20483;-77